createdAt,value
2023-05-11T00:02:06.815Z,4.37
2023-05-11T00:07:10.193Z,4.63
2023-05-11T00:12:12.343Z,4.10
2023-05-11T00:17:14.421Z,5.20
2023-05-11T00:22:17.724Z,5.93
2023-05-11T00:27:19.981Z,4.63
2023-05-11T00:32:22.101Z,5.10
2023-05-11T00:37:26.186Z,4.30
2023-05-11T00:42:28.074Z,4.90
2023-05-11T00:47:31.061Z,4.63
2023-05-11T00:52:34.713Z,4.90
2023-05-11T00:57:38.857Z,6.03
2023-05-11T01:02:41.647Z,5.17
2023-05-11T01:08:04.017Z,4.77
2023-05-11T01:13:14.905Z,5.30
2023-05-11T01:18:22.704Z,5.17
2023-05-11T01:24:00.490Z,4.47
2023-05-11T01:29:20.026Z,4.67
2023-05-11T01:34:26.653Z,4.83
2023-05-11T01:39:32.989Z,4.90
2023-05-11T01:44:37.196Z,6.80
2023-05-11T01:49:44.424Z,5.00
2023-05-11T01:54:48.353Z,5.40
2023-05-11T01:59:52.617Z,5.40
2023-05-11T02:04:57.969Z,7.40
2023-05-11T02:10:00.892Z,5.13
2023-05-11T02:15:04.479Z,6.67
2023-05-11T02:20:11.246Z,5.37
2023-05-11T02:25:15.930Z,5.13
2023-05-11T02:30:18.786Z,6.97
2023-05-11T02:35:25.744Z,7.17
2023-05-11T02:40:32.061Z,8.80
2023-05-11T02:45:35.425Z,7.30
2023-05-11T02:50:41.267Z,5.97
2023-05-11T02:55:43.458Z,5.30
2023-05-11T03:00:46.129Z,6.07
2023-05-11T03:05:49.787Z,6.30
2023-05-11T03:10:52.990Z,5.77
2023-05-11T03:15:56.000Z,6.17
2023-05-11T03:21:01.636Z,7.13
2023-05-11T03:26:05.063Z,6.67
2023-05-11T03:31:07.396Z,5.33
2023-05-11T03:36:12.793Z,7.37
2023-05-11T03:41:16.955Z,7.27
2023-05-11T03:46:21.741Z,6.30
2023-05-11T03:51:25.562Z,7.40
2023-05-11T03:56:27.444Z,8.90
2023-05-11T04:01:30.270Z,8.37
2023-05-11T04:06:33.465Z,8.07
2023-05-11T04:11:37.092Z,8.57
2023-05-11T04:16:39.308Z,7.50
2023-05-11T04:21:42.735Z,10.67
2023-05-11T04:26:44.914Z,8.00
2023-05-11T04:31:47.206Z,7.40
2023-05-11T04:36:51.607Z,9.17
2023-05-11T04:41:54.098Z,6.93
2023-05-11T04:46:56.580Z,5.17
2023-05-11T04:52:00.131Z,7.13
2023-05-11T04:57:02.421Z,5.20
2023-05-11T05:02:04.824Z,7.20
2023-05-11T05:07:08.248Z,3.78
2023-05-11T05:12:10.362Z,4.78
2023-05-11T05:17:12.117Z,3.45
2023-05-11T05:22:15.659Z,4.95
2023-05-11T05:27:17.893Z,5.72
2023-05-11T05:32:20.532Z,6.68
2023-05-11T05:37:24.438Z,3.20
2023-05-11T05:42:26.549Z,2.67
2023-05-11T05:47:28.714Z,4.80
2023-05-11T05:52:32.143Z,2.75
2023-05-11T05:57:34.012Z,3.65
2023-05-11T06:02:36.384Z,5.47
2023-05-11T06:07:39.999Z,4.15
2023-05-11T06:12:41.775Z,3.33
2023-05-11T06:17:44.029Z,4.10
2023-05-11T06:22:47.625Z,2.88
2023-05-11T06:27:49.487Z,4.05
2023-05-11T06:32:51.867Z,2.53
2023-05-11T06:37:55.414Z,3.20
2023-05-11T06:42:57.132Z,4.88
2023-05-11T06:47:59.220Z,3.28
2023-05-11T06:53:02.770Z,4.63
2023-05-11T06:58:04.798Z,2.60
2023-05-11T07:03:08.232Z,2.95
2023-05-11T07:08:12.101Z,3.08
2023-05-11T07:13:14.266Z,6.00
2023-05-11T07:18:16.469Z,2.45
2023-05-11T07:23:20.578Z,2.90
2023-05-11T07:28:22.477Z,2.45
2023-05-11T07:33:25.040Z,3.40
2023-05-11T07:38:28.474Z,2.10
2023-05-11T07:43:30.786Z,3.22
2023-05-11T07:48:32.559Z,4.25
2023-05-11T07:53:36.037Z,2.47
2023-05-11T07:58:38.203Z,3.47
2023-05-11T08:03:40.506Z,1.80
2023-05-11T08:08:44.006Z,2.25
2023-05-11T08:13:46.081Z,2.17
2023-05-11T08:18:48.767Z,2.63
2023-05-11T08:23:52.493Z,2.33
2023-05-11T08:28:54.668Z,3.15
2023-05-11T08:33:57.119Z,4.25
2023-05-11T08:39:00.685Z,2.47
2023-05-11T08:44:03.181Z,2.95
2023-05-11T08:49:05.597Z,3.85
2023-05-11T08:54:09.235Z,2.17
2023-05-11T08:59:14.120Z,2.05
2023-05-11T09:04:17.302Z,3.72
2023-05-11T09:09:21.038Z,2.00
2023-05-11T09:14:27.079Z,2.15
2023-05-11T09:19:29.700Z,2.53
2023-05-11T09:24:33.654Z,2.50
2023-05-11T09:29:36.250Z,2.05
2023-05-11T09:34:43.090Z,2.45
2023-05-11T09:40:14.232Z,2.55
2023-05-11T09:45:10.574Z,2.55
2023-05-11T09:50:17.729Z,1.98
2023-05-11T09:55:21.715Z,3.10
2023-05-11T10:00:23.899Z,2.67
2023-05-11T10:05:26.476Z,1.48
2023-05-11T10:10:31.334Z,1.83
2023-05-11T10:15:35.620Z,1.77
2023-05-11T10:20:39.049Z,1.63
2023-05-11T10:25:43.112Z,1.40
2023-05-11T10:30:46.106Z,1.90
2023-05-11T10:35:50.030Z,0.95
2023-05-11T10:41:02.361Z,2.85
2023-05-11T10:46:15.362Z,2.00
2023-05-11T10:51:41.906Z,1.60
2023-05-11T10:56:55.816Z,1.42
2023-05-11T11:01:58.390Z,1.20
2023-05-11T11:07:07.149Z,1.65
2023-05-11T11:12:11.479Z,1.70
2023-05-11T11:17:25.601Z,1.30
2023-05-11T11:22:45.065Z,3.05
2023-05-11T11:27:59.262Z,1.30
2023-05-11T11:33:32.990Z,1.00
2023-05-11T11:38:58.607Z,2.08
2023-05-11T11:44:03.053Z,1.40
2023-05-11T11:49:09.685Z,1.27
2023-05-11T11:54:11.886Z,1.73
2023-05-11T11:59:15.852Z,1.92
2023-05-11T12:04:34.468Z,2.17
2023-05-11T12:09:39.027Z,5.68
2023-05-11T12:14:43.121Z,3.10
2023-05-11T12:19:45.799Z,1.70
2023-05-11T12:24:48.504Z,1.33
2023-05-11T12:29:52.076Z,0.98
2023-05-11T12:35:01.209Z,1.10
2023-05-11T12:40:03.854Z,1.10
2023-05-11T12:45:08.884Z,1.23
2023-05-11T12:50:11.369Z,3.95
2023-05-11T12:55:13.668Z,3.65
2023-05-11T13:00:19.450Z,1.23
2023-05-11T13:05:26.294Z,1.67
2023-05-11T13:10:28.418Z,1.42
2023-05-11T13:15:32.245Z,1.35
2023-05-11T13:20:34.773Z,2.53
2023-05-11T13:25:52.532Z,1.77
2023-05-11T13:31:01.404Z,2.20
2023-05-11T13:36:04.151Z,1.27
2023-05-11T13:41:06.724Z,1.58
2023-05-11T13:46:10.474Z,1.17
2023-05-11T13:51:12.258Z,1.27
2023-05-11T13:56:14.315Z,1.50
2023-05-11T14:01:17.862Z,2.45
2023-05-11T14:06:22.655Z,2.30
2023-05-11T14:11:24.782Z,1.88
2023-05-11T14:16:28.241Z,3.08
2023-05-11T14:21:30.644Z,1.77
2023-05-11T14:26:33.070Z,1.50
2023-05-11T14:31:36.856Z,1.35
2023-05-11T14:36:38.851Z,2.88
2023-05-11T14:41:41.223Z,1.85
2023-05-11T14:46:44.732Z,1.48
2023-05-11T14:51:47.070Z,1.85
2023-05-11T14:56:49.274Z,1.50
2023-05-11T15:01:53.138Z,1.42
2023-05-11T15:06:55.434Z,1.15
2023-05-11T15:11:57.548Z,1.63
2023-05-11T15:17:01.076Z,1.38
2023-05-11T15:22:03.482Z,1.35
2023-05-11T15:27:06.044Z,2.42
2023-05-11T15:32:13.131Z,1.17
2023-05-11T15:37:15.045Z,0.80
2023-05-11T15:42:17.410Z,1.50
2023-05-11T15:47:21.253Z,1.75
2023-05-11T15:52:23.973Z,1.40
2023-05-11T15:57:25.990Z,4.90
2023-05-11T16:02:29.403Z,1.10
2023-05-11T16:07:31.716Z,1.80
2023-05-11T16:12:33.836Z,1.30
2023-05-11T16:17:37.627Z,2.15
2023-05-11T16:22:40.007Z,2.17
2023-05-11T16:27:42.121Z,1.63
2023-05-11T16:32:46.250Z,1.60
2023-05-11T16:37:48.581Z,1.42
2023-05-11T16:42:51.249Z,2.08
2023-05-11T16:47:54.875Z,1.48
2023-05-11T16:52:57.053Z,4.55
2023-05-11T16:57:58.973Z,1.35
2023-05-11T17:03:02.703Z,3.80
2023-05-11T17:08:05.068Z,1.75
2023-05-11T17:13:07.098Z,1.17
2023-05-11T17:18:10.371Z,1.92
2023-05-11T17:23:12.410Z,3.35
2023-05-11T17:28:14.570Z,1.33
2023-05-11T17:33:18.644Z,3.08
2023-05-11T17:38:20.862Z,4.28
2023-05-11T17:43:23.054Z,1.45
2023-05-11T17:48:26.668Z,1.55
2023-05-11T17:53:28.460Z,1.50
2023-05-11T17:58:30.573Z,1.20
2023-05-11T18:03:34.196Z,2.07
2023-05-11T18:08:36.304Z,1.33
2023-05-11T18:13:38.687Z,1.80
2023-05-11T18:18:41.845Z,5.23
2023-05-11T18:23:43.623Z,2.10
2023-05-11T18:28:45.466Z,3.63
2023-05-11T18:33:48.548Z,2.23
2023-05-11T18:38:50.343Z,2.50
2023-05-11T18:43:52.639Z,1.43
2023-05-11T18:48:56.105Z,2.43
2023-05-11T18:53:57.923Z,1.70
2023-05-11T18:58:59.630Z,2.10
2023-05-11T19:04:03.103Z,1.90
2023-05-11T19:09:05.023Z,1.70
2023-05-11T19:14:07.078Z,2.03
2023-05-11T19:19:10.352Z,2.90
2023-05-11T19:24:12.817Z,3.37
2023-05-11T19:29:14.483Z,1.53
2023-05-11T19:34:17.729Z,1.97
2023-05-11T19:39:19.545Z,2.03
2023-05-11T19:44:22.599Z,4.27
2023-05-11T19:49:26.010Z,4.00
2023-05-11T19:54:28.422Z,1.73
2023-05-11T19:59:31.347Z,2.33
2023-05-11T20:04:34.879Z,4.83
2023-05-11T20:09:37.611Z,1.60
2023-05-11T20:14:39.904Z,2.27
2023-05-11T20:19:43.484Z,2.50
2023-05-11T20:24:45.812Z,2.57
2023-05-11T20:29:48.403Z,4.33
2023-05-11T20:34:51.929Z,1.67
2023-05-11T20:39:54.098Z,4.10
2023-05-11T20:44:56.281Z,3.23
2023-05-11T20:49:59.951Z,2.20
2023-05-11T20:55:01.807Z,4.93
2023-05-11T21:00:05.157Z,2.23
2023-05-11T21:05:08.629Z,2.23
2023-05-11T21:10:11.521Z,2.20
2023-05-11T21:15:13.484Z,2.13
2023-05-11T21:20:16.924Z,17.47
2023-05-11T21:25:18.959Z,9.63
2023-05-11T21:30:21.407Z,10.20
2023-05-11T21:35:25.083Z,23.93
2023-05-11T21:40:27.393Z,17.50
2023-05-11T21:45:29.670Z,9.77
2023-05-11T21:50:33.265Z,3.03
2023-05-11T21:55:35.496Z,2.63
2023-05-11T22:00:37.604Z,3.47
2023-05-11T22:05:41.257Z,2.07
2023-05-11T22:10:43.574Z,7.50
2023-05-11T22:15:45.758Z,4.40
2023-05-11T22:20:49.218Z,4.07
2023-05-11T22:25:51.676Z,2.50
2023-05-11T22:30:53.675Z,2.50
2023-05-11T22:35:57.257Z,3.67
2023-05-11T22:40:59.368Z,3.20
2023-05-11T22:46:01.829Z,2.63
2023-05-11T22:51:05.906Z,2.47
2023-05-11T22:56:08.406Z,2.77
2023-05-11T23:01:10.583Z,2.90
2023-05-11T23:06:14.148Z,3.60
2023-05-11T23:11:16.361Z,3.50
2023-05-11T23:16:18.442Z,4.87
2023-05-11T23:21:22.006Z,2.87
2023-05-11T23:26:23.852Z,4.10
2023-05-11T23:31:26.182Z,4.07
2023-05-11T23:36:29.423Z,3.37
2023-05-11T23:41:31.457Z,3.40
2023-05-11T23:46:33.781Z,3.33
2023-05-11T23:51:37.327Z,3.90
2023-05-11T23:56:39.440Z,2.93
